Архив погоды в Больших Уках

Метеограмма Большие Уки
Среда, 15 Августа
Время местн. Темп Ветер Видим Явления Облачность нижн/средн/верх Атм. давл. Влжн Точка росы ВНГО R Сост. почвы Tg s
Напр Скр Прв ур.ст ур.м изм
03:00 +17.8° Ю,Ю-З 3 - 10 км - переменная облачность 753 760 -0.3 74% +13.1° более 2.5 км - - - -
00:00 +19.9° Ю,Ю-З 3 - 10 км - ясно 753 760 -0.2 73% +14.9° более 2.5 км - - - -
Вторник, 14 Августа
Время местн. Темп Ветер Видим Явления Облачность нижн/средн/верх Атм. давл. Влжн Точка росы ВНГО R Сост. почвы Tg s
Напр Скр Прв ур.ст ур.м изм
21:00 +22.1° Ю-З 2 - 20 км - переменная облачность 753 761 0 73% +17° - 0 - - -
18:00 +26.3° Ю-З 4 - 20 км - ясно 753 760 -0.6 56% +16.8° более 2.5 км - - - -
15:00 +26.6° Ю-З 4 - 20 км - незначительная облачность 754 761 -0.2 54% +16.4° более 2.5 км - - - -
12:00 +24.3° Ю-З 4 - 20 км - переменная облачность 754 761 -0.1 61% +16.4° 1.5 км - - - -
09:00 +19.1° Ю-З 3 - 20 км - переменная облачность 754 762 +0.5 81% +15.8° 1 км 4 Сырая (есть малые или большие лужи) - -
06:00 +15.4° Ю 2 - 20 км гроза {ливневые осадки} преимущественно облачно 753 761 +0.3 98% +15.1° 1 км - - - -
03:00 +15.3° Ю 1 - 10 км - переменная облачность 753 761 0 93% +14.1° более 2.5 км - - - -
00:00 +14.7° Ю 1 - 10 км - ясно 753 761 +0.2 96% +14° более 2.5 км - - - -
Понедельник, 13 Августа
Время местн. Темп Ветер Видим Явления Облачность нижн/средн/верх Атм. давл. Влжн Точка росы ВНГО R Сост. почвы Tg s
Напр Скр Прв ур.ст ур.м изм
21:00 +17.8° Ю,Ю-З 1 - 20 км - облачно с прояснениями 753 761 +0.4 80% +14.4° 1.5 км 0 - - -
18:00 +20.7° Ю,Ю-З 2 - 20 км - облачно с прояснениями 753 760 +0.2 62% +13.2° 1.5 км - - - -
15:00 +20.1° З 2 - 20 км - преимущественно облачно 752 760 +0.1 57% +11.4° 1.5 км - - - -
12:00 +18.8° З 2 - 20 км - переменная облачность 752 760 +0.3 59% +10.7° 1.5 км - - - -
09:00 +14.5° З 2 - 20 км - переменная облачность 752 760 +1 77% +10.6° - 0 Влажная (без луж) - -
06:00 +7.9° Ю-З 1 - 20 км - преимущественно облачно 751 759 +0.4 100% +7.9° 1 км - - - -
03:00 +5.6° штиль 0 - 10 км - переменная облачность 751 759 +0.3 100% +5.6° более 2.5 км - - - -
00:00 +7.4° штиль 0 - 10 км - облачно 750 758 +0.8 100% +7.4° - - - - -
Воскресенье, 12 Августа
Время местн. Темп Ветер Видим Явления Облачность нижн/средн/верх Атм. давл. Влжн Точка росы ВНГО R Сост. почвы Tg s
Напр Скр Прв ур.ст ур.м изм
21:00 +10.3° штиль 0 - 20 км - незначительная облачность 750 757 +0.9 88% +8.4° более 2.5 км 0.5 - - -
18:00 +14.9° С,С-В 4 - 20 км - переменная облачность 749 756 +1.5 60% +7.1° 1.5 км - - - -
15:00 +13.3° С 4 10 20 км - облачно 747 755 +1.5 68% +7.5° 1 км - - - -
12:00 +12° С 6 10 20 км небо без изменений {ливневые осадки} облачно 746 753 +2.1 80% +8.6° - - - - -
09:00 +9.2° С 5 11 8 км слабый ливневый дождь облачно 744 751 +2.3 97% +8.8° 1 км 19 Сырая (есть малые или большие лужи) +10° -
06:00 +8.9° С 5 11 8 км слабый ливневый дождь облачно 741 749 +1.2 100% +8.9° 1 км - - - -
03:00 +8.9° С-З 4 10 4 км слабый ливневый дождь облачно 740 748 0 100% +8.9° 1 км - - - -
00:00 +9.3° С-З 3 - 4 км слабый непрерывный дождь {ливневые осадки} облачно 740 748 +1.6 100% +9.3° - - - - -